sensor_id;sensor_type;location;lat;lon;timestamp;pressure;altitude;pressure_sealevel;temperature;humidity
75543;BME280;64129;53.508;10.476;2023-07-22T00:00:30;100600.50;;;13.32;92.11
75543;BME280;64129;53.508;10.476;2023-07-22T00:02:57;100610.31;;;13.31;93.08
75543;BME280;64129;53.508;10.476;2023-07-22T00:05:23;100611.94;;;13.35;92.02
75543;BME280;64129;53.508;10.476;2023-07-22T00:07:51;100615.28;;;13.40;91.32
75543;BME280;64129;53.508;10.476;2023-07-22T00:10:18;100606.59;;;13.35;90.20
75543;BME280;64129;53.508;10.476;2023-07-22T00:12:45;100608.91;;;13.21;93.14
75543;BME280;64129;53.508;10.476;2023-07-22T00:15:12;100600.75;;;13.26;90.60
75543;BME280;64129;53.508;10.476;2023-07-22T00:17:40;100596.56;;;13.19;91.64
75543;BME280;64129;53.508;10.476;2023-07-22T00:20:07;100601.91;;;13.19;91.97
75543;BME280;64129;53.508;10.476;2023-07-22T00:22:38;100605.13;;;13.02;94.14
75543;BME280;64129;53.508;10.476;2023-07-22T00:25:10;100604.19;;;13.03;94.07
75543;BME280;64129;53.508;10.476;2023-07-22T00:27:41;100602.66;;;13.22;91.10
75543;BME280;64129;53.508;10.476;2023-07-22T00:30:08;100607.63;;;13.06;93.41
75543;BME280;64129;53.508;10.476;2023-07-22T00:32:35;100605.38;;;13.21;91.53
75543;BME280;64129;53.508;10.476;2023-07-22T00:35:06;100607.81;;;13.27;91.51
75543;BME280;64129;53.508;10.476;2023-07-22T00:37:33;100599.75;;;13.28;90.80
75543;BME280;64129;53.508;10.476;2023-07-22T00:40:01;100602.41;;;13.28;92.58
75543;BME280;64129;53.508;10.476;2023-07-22T00:42:29;100600.25;;;13.13;92.97
75543;BME280;64129;53.508;10.476;2023-07-22T00:44:56;100612.28;;;13.26;90.25
75543;BME280;64129;53.508;10.476;2023-07-22T00:47:23;100603.00;;;13.11;93.17
75543;BME280;64129;53.508;10.476;2023-07-22T00:49:50;100600.84;;;13.23;91.58
75543;BME280;64129;53.508;10.476;2023-07-22T00:52:17;100612.94;;;13.06;94.57
75543;BME280;64129;53.508;10.476;2023-07-22T00:54:44;100611.81;;;13.13;94.31
75543;BME280;64129;53.508;10.476;2023-07-22T00:57:12;100610.78;;;13.19;93.20
75543;BME280;64129;53.508;10.476;2023-07-22T00:59:39;100603.41;;;13.26;92.87
75543;BME280;64129;53.508;10.476;2023-07-22T01:02:07;100609.19;;;13.12;94.32
75543;BME280;64129;53.508;10.476;2023-07-22T01:04:34;100601.91;;;13.17;93.75
75543;BME280;64129;53.508;10.476;2023-07-22T01:07:01;100610.00;;;13.14;95.32
75543;BME280;64129;53.508;10.476;2023-07-22T01:09:40;100605.81;;;13.07;95.63
75543;BME280;64129;53.508;10.476;2023-07-22T01:12:07;100594.81;;;13.16;94.70
75543;BME280;64129;53.508;10.476;2023-07-22T01:14:40;100600.59;;;13.04;96.09
75543;BME280;64129;53.508;10.476;2023-07-22T01:17:08;100593.06;;;13.15;92.97
75543;BME280;64129;53.508;10.476;2023-07-22T01:19:35;100593.84;;;13.20;95.03
75543;BME280;64129;53.508;10.476;2023-07-22T01:22:04;100591.06;;;13.23;94.28
75543;BME280;64129;53.508;10.476;2023-07-22T01:24:31;100590.13;;;13.24;93.76
75543;BME280;64129;53.508;10.476;2023-07-22T01:26:58;100590.75;;;13.06;95.06
75543;BME280;64129;53.508;10.476;2023-07-22T01:29:25;100588.63;;;13.16;93.44
75543;BME280;64129;53.508;10.476;2023-07-22T01:31:53;100591.16;;;13.20;93.88
75543;BME280;64129;53.508;10.476;2023-07-22T01:34:21;100590.69;;;13.07;94.69
75543;BME280;64129;53.508;10.476;2023-07-22T01:36:48;100592.09;;;13.19;92.59
75543;BME280;64129;53.508;10.476;2023-07-22T01:39:16;100598.00;;;13.27;93.33
75543;BME280;64129;53.508;10.476;2023-07-22T01:41:43;100596.63;;;13.16;94.05
75543;BME280;64129;53.508;10.476;2023-07-22T01:44:09;100596.38;;;12.98;95.32
75543;BME280;64129;53.508;10.476;2023-07-22T01:46:37;100587.34;;;13.02;95.01
75543;BME280;64129;53.508;10.476;2023-07-22T01:49:12;100586.22;;;13.08;93.76
75543;BME280;64129;53.508;10.476;2023-07-22T01:51:39;100583.78;;;13.02;93.97
75543;BME280;64129;53.508;10.476;2023-07-22T01:54:09;100590.38;;;12.92;95.98
75543;BME280;64129;53.508;10.476;2023-07-22T01:56:37;100587.03;;;13.10;93.01
75543;BME280;64129;53.508;10.476;2023-07-22T01:59:04;100594.28;;;13.06;92.75
75543;BME280;64129;53.508;10.476;2023-07-22T02:01:32;100593.97;;;12.91;94.88
75543;BME280;64129;53.508;10.476;2023-07-22T02:03:58;100588.25;;;13.01;94.03
75543;BME280;64129;53.508;10.476;2023-07-22T02:06:26;100590.28;;;12.95;93.49
75543;BME280;64129;53.508;10.476;2023-07-22T02:08:53;100592.03;;;12.96;94.00
75543;BME280;64129;53.508;10.476;2023-07-22T02:11:19;100586.91;;;12.90;93.69
75543;BME280;64129;53.508;10.476;2023-07-22T02:13:46;100593.06;;;12.92;93.46
75543;BME280;64129;53.508;10.476;2023-07-22T02:16:12;100587.13;;;12.84;94.34
75543;BME280;64129;53.508;10.476;2023-07-22T02:18:39;100592.34;;;12.87;93.70
75543;BME280;64129;53.508;10.476;2023-07-22T02:21:06;100588.75;;;12.88;93.19
75543;BME280;64129;53.508;10.476;2023-07-22T02:23:32;100585.81;;;12.70;94.23
75543;BME280;64129;53.508;10.476;2023-07-22T02:25:59;100589.38;;;12.69;94.17
75543;BME280;64129;53.508;10.476;2023-07-22T02:28:25;100584.06;;;12.69;94.05
75543;BME280;64129;53.508;10.476;2023-07-22T02:30:52;100587.53;;;12.71;93.96
75543;BME280;64129;53.508;10.476;2023-07-22T02:33:21;100586.13;;;12.61;94.80
75543;BME280;64129;53.508;10.476;2023-07-22T02:35:48;100590.25;;;12.70;93.98
75543;BME280;64129;53.508;10.476;2023-07-22T02:38:15;100591.25;;;12.67;93.88
75543;BME280;64129;53.508;10.476;2023-07-22T02:40:43;100586.63;;;12.72;92.40
75543;BME280;64129;53.508;10.476;2023-07-22T02:43:10;100589.94;;;12.54;93.76
75543;BME280;64129;53.508;10.476;2023-07-22T02:45:37;100598.75;;;12.56;93.18
75543;BME280;64129;53.508;10.476;2023-07-22T02:48:04;100592.28;;;12.63;93.20
75543;BME280;64129;53.508;10.476;2023-07-22T02:50:30;100598.31;;;12.68;91.00
75543;BME280;64129;53.508;10.476;2023-07-22T02:52:57;100606.94;;;12.50;94.58
75543;BME280;64129;53.508;10.476;2023-07-22T02:55:24;100605.28;;;12.46;94.43
75543;BME280;64129;53.508;10.476;2023-07-22T02:57:50;100603.84;;;12.62;93.08
75543;BME280;64129;53.508;10.476;2023-07-22T03:00:19;100602.66;;;12.44;92.97
75543;BME280;64129;53.508;10.476;2023-07-22T03:02:53;100609.88;;;12.41;94.47
75543;BME280;64129;53.508;10.476;2023-07-22T03:05:20;100610.19;;;12.32;95.26
75543;BME280;64129;53.508;10.476;2023-07-22T03:07:47;100605.91;;;12.54;92.04
75543;BME280;64129;53.508;10.476;2023-07-22T03:10:14;100608.03;;;12.43;93.30
75543;BME280;64129;53.508;10.476;2023-07-22T03:12:40;100608.56;;;12.28;94.66
75543;BME280;64129;53.508;10.476;2023-07-22T03:15:07;100603.81;;;12.37;94.47
75543;BME280;64129;53.508;10.476;2023-07-22T03:17:35;100611.94;;;12.33;94.39
75543;BME280;64129;53.508;10.476;2023-07-22T03:20:03;100605.50;;;12.40;92.68
75543;BME280;64129;53.508;10.476;2023-07-22T03:22:46;100613.88;;;12.28;95.32
75543;BME280;64129;53.508;10.476;2023-07-22T03:25:14;100609.78;;;12.44;93.86
75543;BME280;64129;53.508;10.476;2023-07-22T03:27:43;100614.19;;;12.45;92.50
75543;BME280;64129;53.508;10.476;2023-07-22T03:30:13;100620.84;;;12.32;93.28
75543;BME280;64129;53.508;10.476;2023-07-22T03:32:44;100617.28;;;12.33;93.07
75543;BME280;64129;53.508;10.476;2023-07-22T03:35:11;100628.44;;;12.17;95.20
75543;BME280;64129;53.508;10.476;2023-07-22T03:37:39;100620.66;;;12.10;96.16
75543;BME280;64129;53.508;10.476;2023-07-22T03:40:07;100622.28;;;12.15;95.53
75543;BME280;64129;53.508;10.476;2023-07-22T03:42:55;100624.84;;;12.18;96.58
75543;BME280;64129;53.508;10.476;2023-07-22T03:45:21;100620.59;;;12.11;96.98
75543;BME280;64129;53.508;10.476;2023-07-22T03:47:53;100621.44;;;12.13;97.26
75543;BME280;64129;53.508;10.476;2023-07-22T03:50:20;100630.19;;;12.18;97.19
75543;BME280;64129;53.508;10.476;2023-07-22T03:52:47;100634.88;;;12.37;95.82
75543;BME280;64129;53.508;10.476;2023-07-22T03:55:13;100631.50;;;12.32;96.50
75543;BME280;64129;53.508;10.476;2023-07-22T03:57:40;100632.16;;;12.38;96.97
75543;BME280;64129;53.508;10.476;2023-07-22T04:00:07;100640.97;;;12.40;97.40
75543;BME280;64129;53.508;10.476;2023-07-22T04:02:39;100627.94;;;12.33;96.00
75543;BME280;64129;53.508;10.476;2023-07-22T04:05:06;100629.72;;;12.32;97.23
75543;BME280;64129;53.508;10.476;2023-07-22T04:07:34;100627.00;;;12.34;97.86
75543;BME280;64129;53.508;10.476;2023-07-22T04:10:00;100629.19;;;12.49;95.38
75543;BME280;64129;53.508;10.476;2023-07-22T04:12:27;100628.19;;;12.52;97.39
75543;BME280;64129;53.508;10.476;2023-07-22T04:14:55;100635.28;;;12.53;95.66
75543;BME280;64129;53.508;10.476;2023-07-22T04:17:21;100633.47;;;12.53;94.88
75543;BME280;64129;53.508;10.476;2023-07-22T04:19:51;100631.53;;;12.58;95.67
75543;BME280;64129;53.508;10.476;2023-07-22T04:22:18;100636.38;;;12.45;97.81
75543;BME280;64129;53.508;10.476;2023-07-22T04:24:45;100639.41;;;12.61;96.19
75543;BME280;64129;53.508;10.476;2023-07-22T04:27:14;100633.81;;;12.42;97.11
75543;BME280;64129;53.508;10.476;2023-07-22T04:29:42;100630.50;;;12.62;96.40
75543;BME280;64129;53.508;10.476;2023-07-22T04:32:08;100641.97;;;12.64;94.84
75543;BME280;64129;53.508;10.476;2023-07-22T04:34:35;100640.34;;;12.60;97.04
75543;BME280;64129;53.508;10.476;2023-07-22T04:37:02;100647.41;;;12.61;94.93
75543;BME280;64129;53.508;10.476;2023-07-22T04:39:28;100649.84;;;12.67;95.75
75543;BME280;64129;53.508;10.476;2023-07-22T04:41:55;100652.47;;;12.69;95.40
75543;BME280;64129;53.508;10.476;2023-07-22T04:44:21;100655.19;;;12.67;96.00
75543;BME280;64129;53.508;10.476;2023-07-22T04:46:48;100654.09;;;12.73;96.07
75543;BME280;64129;53.508;10.476;2023-07-22T04:49:14;100655.78;;;12.75;95.13
75543;BME280;64129;53.508;10.476;2023-07-22T04:51:45;100648.72;;;12.74;95.25
75543;BME280;64129;53.508;10.476;2023-07-22T04:54:12;100656.50;;;12.80;96.29
75543;BME280;64129;53.508;10.476;2023-07-22T04:56:38;100665.53;;;12.76;94.90
75543;BME280;64129;53.508;10.476;2023-07-22T04:59:05;100675.91;;;12.86;95.46
75543;BME280;64129;53.508;10.476;2023-07-22T05:01:31;100664.56;;;12.79;95.01
75543;BME280;64129;53.508;10.476;2023-07-22T05:03:58;100670.66;;;12.82;95.52
75543;BME280;64129;53.508;10.476;2023-07-22T05:06:24;100665.31;;;12.82;95.69
75543;BME280;64129;53.508;10.476;2023-07-22T05:08:51;100673.41;;;12.79;95.33
75543;BME280;64129;53.508;10.476;2023-07-22T05:11:18;100676.66;;;12.89;95.30
75543;BME280;64129;53.508;10.476;2023-07-22T05:13:44;100666.88;;;12.90;94.70
75543;BME280;64129;53.508;10.476;2023-07-22T05:16:11;100668.19;;;13.03;93.82
75543;BME280;64129;53.508;10.476;2023-07-22T05:18:37;100677.91;;;13.04;94.27
75543;BME280;64129;53.508;10.476;2023-07-22T05:21:05;100688.31;;;13.11;94.97
75543;BME280;64129;53.508;10.476;2023-07-22T05:23:31;100685.88;;;13.05;94.67
75543;BME280;64129;53.508;10.476;2023-07-22T05:25:58;100702.47;;;13.13;93.97
75543;BME280;64129;53.508;10.476;2023-07-22T05:28:25;100693.75;;;13.08;94.46
75543;BME280;64129;53.508;10.476;2023-07-22T05:30:51;100696.38;;;13.10;95.37
75543;BME280;64129;53.508;10.476;2023-07-22T05:33:18;100702.53;;;13.12;94.71
75543;BME280;64129;53.508;10.476;2023-07-22T05:35:44;100696.66;;;13.29;93.76
75543;BME280;64129;53.508;10.476;2023-07-22T05:38:12;100701.59;;;13.13;94.48
75543;BME280;64129;53.508;10.476;2023-07-22T05:40:38;100712.16;;;13.16;95.10
75543;BME280;64129;53.508;10.476;2023-07-22T05:43:05;100708.34;;;13.25;94.69
75543;BME280;64129;53.508;10.476;2023-07-22T05:45:31;100705.91;;;13.19;95.22
75543;BME280;64129;53.508;10.476;2023-07-22T05:47:58;100709.38;;;13.21;95.27
75543;BME280;64129;53.508;10.476;2023-07-22T05:50:24;100713.84;;;13.20;95.22
75543;BME280;64129;53.508;10.476;2023-07-22T05:52:51;100706.34;;;13.31;95.14
75543;BME280;64129;53.508;10.476;2023-07-22T05:55:18;100706.97;;;13.38;95.94
75543;BME280;64129;53.508;10.476;2023-07-22T05:57:44;100709.25;;;13.49;94.63
75543;BME280;64129;53.508;10.476;2023-07-22T06:00:12;100710.00;;;13.54;93.16
75543;BME280;64129;53.508;10.476;2023-07-22T06:02:39;100716.56;;;13.68;93.83
75543;BME280;64129;53.508;10.476;2023-07-22T06:05:06;100711.97;;;13.72;92.37
75543;BME280;64129;53.508;10.476;2023-07-22T06:07:33;100719.09;;;13.71;91.87
75543;BME280;64129;53.508;10.476;2023-07-22T06:09:59;100716.28;;;13.99;93.03
75543;BME280;64129;53.508;10.476;2023-07-22T06:12:26;100726.00;;;13.77;93.08
75543;BME280;64129;53.508;10.476;2023-07-22T06:14:53;100731.81;;;13.65;92.51
75543;BME280;64129;53.508;10.476;2023-07-22T06:17:19;100726.50;;;13.88;92.88
75543;BME280;64129;53.508;10.476;2023-07-22T06:19:47;100730.31;;;14.04;92.00
75543;BME280;64129;53.508;10.476;2023-07-22T06:22:14;100728.94;;;13.94;93.00
75543;BME280;64129;53.508;10.476;2023-07-22T06:24:41;100731.56;;;13.96;92.69
75543;BME280;64129;53.508;10.476;2023-07-22T06:27:07;100728.81;;;13.97;93.35
75543;BME280;64129;53.508;10.476;2023-07-22T06:29:34;100731.56;;;13.96;92.55
75543;BME280;64129;53.508;10.476;2023-07-22T06:32:00;100727.13;;;14.18;91.08
75543;BME280;64129;53.508;10.476;2023-07-22T06:34:27;100736.91;;;14.41;91.16
75543;BME280;64129;53.508;10.476;2023-07-22T06:36:54;100730.41;;;14.48;91.01
75543;BME280;64129;53.508;10.476;2023-07-22T06:39:20;100724.03;;;14.52;90.05
75543;BME280;64129;53.508;10.476;2023-07-22T06:41:47;100728.22;;;14.59;89.46
75543;BME280;64129;53.508;10.476;2023-07-22T06:44:13;100739.13;;;14.53;91.40
75543;BME280;64129;53.508;10.476;2023-07-22T06:46:40;100732.78;;;14.78;88.55
75543;BME280;64129;53.508;10.476;2023-07-22T06:49:07;100730.53;;;14.89;87.59
75543;BME280;64129;53.508;10.476;2023-07-22T06:51:33;100734.78;;;14.94;88.09
75543;BME280;64129;53.508;10.476;2023-07-22T06:54:02;100733.91;;;14.94;89.50
75543;BME280;64129;53.508;10.476;2023-07-22T06:56:28;100744.09;;;15.06;88.31
75543;BME280;64129;53.508;10.476;2023-07-22T06:58:55;100736.34;;;15.00;88.87
75543;BME280;64129;53.508;10.476;2023-07-22T07:01:22;100743.81;;;14.92;87.76
75543;BME280;64129;53.508;10.476;2023-07-22T07:03:49;100736.88;;;15.08;85.99
75543;BME280;64129;53.508;10.476;2023-07-22T07:06:15;100740.47;;;15.07;85.38
75543;BME280;64129;53.508;10.476;2023-07-22T07:08:42;100744.06;;;15.28;85.77
75543;BME280;64129;53.508;10.476;2023-07-22T07:11:09;100746.28;;;15.59;84.70
75543;BME280;64129;53.508;10.476;2023-07-22T07:13:35;100751.22;;;15.27;84.18
75543;BME280;64129;53.508;10.476;2023-07-22T07:16:21;100754.56;;;15.33;85.65
75543;BME280;64129;53.508;10.476;2023-07-22T07:18:50;100749.75;;;15.41;85.07
75543;BME280;64129;53.508;10.476;2023-07-22T07:21:20;100750.97;;;15.74;84.86
75543;BME280;64129;53.508;10.476;2023-07-22T07:23:48;100748.94;;;16.00;82.36
75543;BME280;64129;53.508;10.476;2023-07-22T07:26:15;100753.94;;;16.26;81.92
75543;BME280;64129;53.508;10.476;2023-07-22T07:28:42;100752.41;;;16.20;80.80
75543;BME280;64129;53.508;10.476;2023-07-22T07:31:09;100761.31;;;16.21;81.43
75543;BME280;64129;53.508;10.476;2023-07-22T07:33:36;100755.16;;;16.19;80.04
75543;BME280;64129;53.508;10.476;2023-07-22T07:36:03;100762.84;;;16.27;79.52
75543;BME280;64129;53.508;10.476;2023-07-22T07:38:30;100763.78;;;16.63;77.59
75543;BME280;64129;53.508;10.476;2023-07-22T07:40:58;100764.66;;;16.26;79.03
75543;BME280;64129;53.508;10.476;2023-07-22T07:43:26;100764.19;;;16.37;79.88
75543;BME280;64129;53.508;10.476;2023-07-22T07:48:40;100773.94;;;16.19;80.36
75543;BME280;64129;53.508;10.476;2023-07-22T07:51:07;100776.59;;;16.19;78.73
75543;BME280;64129;53.508;10.476;2023-07-22T07:53:33;100777.13;;;16.27;77.64
75543;BME280;64129;53.508;10.476;2023-07-22T07:56:00;100777.22;;;16.44;78.90
75543;BME280;64129;53.508;10.476;2023-07-22T07:58:27;100788.00;;;16.43;80.24
75543;BME280;64129;53.508;10.476;2023-07-22T08:00:53;100789.06;;;16.20;79.51
75543;BME280;64129;53.508;10.476;2023-07-22T08:03:20;100790.66;;;16.62;79.62
75543;BME280;64129;53.508;10.476;2023-07-22T08:05:47;100781.34;;;16.51;78.16
75543;BME280;64129;53.508;10.476;2023-07-22T08:08:13;100792.06;;;16.89;78.40
75543;BME280;64129;53.508;10.476;2023-07-22T08:10:40;100794.16;;;17.01;77.67
75543;BME280;64129;53.508;10.476;2023-07-22T08:13:07;100796.19;;;17.50;77.53
75543;BME280;64129;53.508;10.476;2023-07-22T08:15:33;100801.00;;;17.43;76.31
75543;BME280;64129;53.508;10.476;2023-07-22T08:18:00;100794.81;;;17.24;77.36
75543;BME280;64129;53.508;10.476;2023-07-22T08:20:27;100795.59;;;17.26;74.62
75543;BME280;64129;53.508;10.476;2023-07-22T08:22:53;100799.88;;;16.94;76.00
75543;BME280;64129;53.508;10.476;2023-07-22T08:25:20;100788.50;;;17.07;74.72
75543;BME280;64129;53.508;10.476;2023-07-22T08:27:47;100786.94;;;16.84;76.03
75543;BME280;64129;53.508;10.476;2023-07-22T08:30:13;100794.44;;;16.95;74.83
75543;BME280;64129;53.508;10.476;2023-07-22T08:32:40;100808.22;;;17.06;72.20
75543;BME280;64129;53.508;10.476;2023-07-22T08:35:06;100790.44;;;17.40;73.24
75543;BME280;64129;53.508;10.476;2023-07-22T08:37:33;100792.16;;;17.41;72.44
75543;BME280;64129;53.508;10.476;2023-07-22T08:40:00;100787.19;;;17.68;73.54
75543;BME280;64129;53.508;10.476;2023-07-22T08:42:28;100800.81;;;18.15;73.64
75543;BME280;64129;53.508;10.476;2023-07-22T08:44:57;100785.81;;;18.11;68.18
75543;BME280;64129;53.508;10.476;2023-07-22T08:47:28;100800.25;;;17.75;70.73
75543;BME280;64129;53.508;10.476;2023-07-22T08:49:58;100801.00;;;17.43;69.61
75543;BME280;64129;53.508;10.476;2023-07-22T08:52:26;100801.75;;;17.81;70.07
75543;BME280;64129;53.508;10.476;2023-07-22T08:54:53;100800.91;;;17.96;66.11
75543;BME280;64129;53.508;10.476;2023-07-22T08:57:21;100797.84;;;18.04;66.19
75543;BME280;64129;53.508;10.476;2023-07-22T08:59:48;100801.84;;;18.13;68.95
75543;BME280;64129;53.508;10.476;2023-07-22T09:02:15;100794.31;;;17.86;65.84
75543;BME280;64129;53.508;10.476;2023-07-22T09:04:42;100800.28;;;18.08;65.82
75543;BME280;64129;53.508;10.476;2023-07-22T09:07:10;100798.09;;;18.48;67.90
75543;BME280;64129;53.508;10.476;2023-07-22T09:09:40;100797.19;;;18.32;63.21
75543;BME280;64129;53.508;10.476;2023-07-22T09:12:07;100800.88;;;18.47;64.00
75543;BME280;64129;53.508;10.476;2023-07-22T09:14:34;100804.06;;;18.86;65.35
75543;BME280;64129;53.508;10.476;2023-07-22T09:17:03;100802.13;;;18.24;63.66
75543;BME280;64129;53.508;10.476;2023-07-22T09:19:29;100805.88;;;18.37;67.20
75543;BME280;64129;53.508;10.476;2023-07-22T09:21:56;100801.03;;;19.38;63.19
75543;BME280;64129;53.508;10.476;2023-07-22T09:24:24;100805.41;;;19.25;60.85
75543;BME280;64129;53.508;10.476;2023-07-22T09:26:51;100802.41;;;19.45;62.13
75543;BME280;64129;53.508;10.476;2023-07-22T09:29:18;100796.41;;;19.40;63.57
75543;BME280;64129;53.508;10.476;2023-07-22T09:31:58;100792.75;;;19.11;62.54
75543;BME280;64129;53.508;10.476;2023-07-22T09:34:25;100798.56;;;19.04;59.99
75543;BME280;64129;53.508;10.476;2023-07-22T09:36:56;100803.13;;;19.33;56.67
75543;BME280;64129;53.508;10.476;2023-07-22T09:39:24;100792.75;;;19.11;57.16
75543;BME280;64129;53.508;10.476;2023-07-22T09:41:50;100800.53;;;19.31;57.67
75543;BME280;64129;53.508;10.476;2023-07-22T09:44:19;100796.25;;;18.82;59.20
75543;BME280;64129;53.508;10.476;2023-07-22T09:46:49;100784.97;;;19.67;58.96
75543;BME280;64129;53.508;10.476;2023-07-22T09:49:17;100790.22;;;19.98;54.24
75543;BME280;64129;53.508;10.476;2023-07-22T09:51:44;100790.63;;;20.35;53.56
75543;BME280;64129;53.508;10.476;2023-07-22T09:54:22;100795.97;;;20.92;56.23
75543;BME280;64129;53.508;10.476;2023-07-22T09:56:49;100792.66;;;20.17;56.47
75543;BME280;64129;53.508;10.476;2023-07-22T09:59:18;100786.97;;;20.21;55.33
75543;BME280;64129;53.508;10.476;2023-07-22T10:01:46;100790.63;;;20.35;54.75
75543;BME280;64129;53.508;10.476;2023-07-22T10:04:16;100782.94;;;20.57;52.50
75543;BME280;64129;53.508;10.476;2023-07-22T10:06:43;100775.06;;;20.81;50.63
75543;BME280;64129;53.508;10.476;2023-07-22T10:09:11;100783.19;;;20.38;51.77
75543;BME280;64129;53.508;10.476;2023-07-22T10:11:39;100785.16;;;20.50;55.41
75543;BME280;64129;53.508;10.476;2023-07-22T10:14:05;100789.25;;;20.70;52.19
75543;BME280;64129;53.508;10.476;2023-07-22T10:16:33;100781.56;;;21.05;53.46
75543;BME280;64129;53.508;10.476;2023-07-22T10:19:01;100784.41;;;20.90;50.38
75543;BME280;64129;53.508;10.476;2023-07-22T10:21:28;100787.63;;;21.36;49.81
75543;BME280;64129;53.508;10.476;2023-07-22T10:23:55;100785.44;;;20.17;51.08
75543;BME280;64129;53.508;10.476;2023-07-22T10:26:23;100782.53;;;21.04;50.31
75543;BME280;64129;53.508;10.476;2023-07-22T10:28:55;100779.22;;;21.40;49.58
75543;BME280;64129;53.508;10.476;2023-07-22T10:31:23;100786.41;;;21.54;47.79
75543;BME280;64129;53.508;10.476;2023-07-22T10:33:49;100769.53;;;21.76;46.54
75543;BME280;64129;53.508;10.476;2023-07-22T10:36:16;100777.13;;;21.96;47.59
75543;BME280;64129;53.508;10.476;2023-07-22T10:38:43;100789.44;;;22.51;47.54
75543;BME280;64129;53.508;10.476;2023-07-22T10:41:14;100784.72;;;22.29;47.61
75543;BME280;64129;53.508;10.476;2023-07-22T10:43:54;100784.66;;;22.67;50.69
75543;BME280;64129;53.508;10.476;2023-07-22T10:46:35;100791.63;;;22.46;46.98
75543;BME280;64129;53.508;10.476;2023-07-22T10:49:16;100782.88;;;22.42;49.20
75543;BME280;64129;53.508;10.476;2023-07-22T10:51:51;100781.38;;;22.26;47.54
75543;BME280;64129;53.508;10.476;2023-07-22T10:54:38;100782.75;;;21.93;45.49
75543;BME280;64129;53.508;10.476;2023-07-22T10:59:50;100777.81;;;22.75;43.82
75543;BME280;64129;53.508;10.476;2023-07-22T11:02:26;100786.38;;;23.53;42.78
75543;BME280;64129;53.508;10.476;2023-07-22T11:04:56;100766.50;;;23.76;40.43
75543;BME280;64129;53.508;10.476;2023-07-22T11:07:30;100774.78;;;22.30;41.60
75543;BME280;64129;53.508;10.476;2023-07-22T11:09:57;100782.78;;;22.19;43.89
75543;BME280;64129;53.508;10.476;2023-07-22T11:12:25;100779.97;;;22.07;47.55
75543;BME280;64129;53.508;10.476;2023-07-22T11:14:52;100785.13;;;21.85;46.37
75543;BME280;64129;53.508;10.476;2023-07-22T11:17:30;100765.25;;;22.73;40.68
75543;BME280;64129;53.508;10.476;2023-07-22T11:19:58;100773.00;;;22.41;41.85
75543;BME280;64129;53.508;10.476;2023-07-22T11:22:25;100761.75;;;21.59;41.75
75543;BME280;64129;53.508;10.476;2023-07-22T11:24:52;100766.13;;;22.12;42.20
75543;BME280;64129;53.508;10.476;2023-07-22T11:27:19;100774.56;;;22.07;41.43
75543;BME280;64129;53.508;10.476;2023-07-22T11:29:48;100775.38;;;22.46;43.22
75543;BME280;64129;53.508;10.476;2023-07-22T11:32:15;100759.09;;;22.71;40.71
75543;BME280;64129;53.508;10.476;2023-07-22T11:34:44;100749.25;;;23.77;39.18
75543;BME280;64129;53.508;10.476;2023-07-22T11:37:13;100756.22;;;24.48;39.28
75543;BME280;64129;53.508;10.476;2023-07-22T11:39:41;100777.00;;;22.98;44.58
75543;BME280;64129;53.508;10.476;2023-07-22T11:42:08;100764.03;;;22.03;43.77
75543;BME280;64129;53.508;10.476;2023-07-22T11:44:36;100767.41;;;22.06;44.63
75543;BME280;64129;53.508;10.476;2023-07-22T11:47:04;100766.75;;;21.90;44.58
75543;BME280;64129;53.508;10.476;2023-07-22T11:49:36;100760.25;;;21.80;43.98
75543;BME280;64129;53.508;10.476;2023-07-22T11:52:07;100771.25;;;20.98;45.61
75543;BME280;64129;53.508;10.476;2023-07-22T11:54:39;100768.13;;;21.18;46.19
75543;BME280;64129;53.508;10.476;2023-07-22T11:57:24;100779.63;;;21.34;45.93
75543;BME280;64129;53.508;10.476;2023-07-22T11:59:52;100752.03;;;22.32;46.13
75543;BME280;64129;53.508;10.476;2023-07-22T12:02:24;100745.38;;;22.49;42.87
75543;BME280;64129;53.508;10.476;2023-07-22T12:05:01;100748.72;;;23.02;42.38
75543;BME280;64129;53.508;10.476;2023-07-22T12:07:30;100752.78;;;22.84;42.57
75543;BME280;64129;53.508;10.476;2023-07-22T12:09:59;100728.66;;;23.40;39.10
75543;BME280;64129;53.508;10.476;2023-07-22T12:15:16;100751.44;;;23.37;41.56
75543;BME280;64129;53.508;10.476;2023-07-22T12:17:56;100742.63;;;24.04;41.12
75543;BME280;64129;53.508;10.476;2023-07-22T12:20:25;100740.41;;;23.98;39.70
75543;BME280;64129;53.508;10.476;2023-07-22T12:22:53;100738.19;;;24.47;42.37
75543;BME280;64129;53.508;10.476;2023-07-22T12:25:20;100731.38;;;23.51;40.04
75543;BME280;64129;53.508;10.476;2023-07-22T12:27:46;100728.69;;;25.07;40.23
75543;BME280;64129;53.508;10.476;2023-07-22T12:30:13;100727.53;;;23.07;41.76
75543;BME280;64129;53.508;10.476;2023-07-22T12:32:40;100719.78;;;23.38;40.77
75543;BME280;64129;53.508;10.476;2023-07-22T12:35:07;100718.81;;;23.50;42.17
75543;BME280;64129;53.508;10.476;2023-07-22T12:37:35;100719.31;;;23.55;42.12
75543;BME280;64129;53.508;10.476;2023-07-22T12:40:02;100713.00;;;24.23;41.10
75543;BME280;64129;53.508;10.476;2023-07-22T12:42:31;100711.16;;;24.12;38.73
75543;BME280;64129;53.508;10.476;2023-07-22T12:44:57;100712.88;;;23.91;38.93
75543;BME280;64129;53.508;10.476;2023-07-22T12:47:24;100693.09;;;25.94;36.83
75543;BME280;64129;53.508;10.476;2023-07-22T12:49:51;100701.91;;;25.76;37.00
75543;BME280;64129;53.508;10.476;2023-07-22T12:52:17;100721.41;;;24.42;38.51